• Join FlightAware (Why Join?)
  • Login
  • US Flag 
05:23AM EDT


 

Airport Tracker/Info


-or-


 

Live Flight TrackerFlight Track Log ✈ HAL122 ✈ 09-May-2013 ✈ PHNL - PHTO / ITO

Flight Track Log - Related Links

Times and Time Zones

All times are in EDT time to prevent confusion due to time zone crossing. See the HAL122 flight status page for this flight to view local times or setup timezone preferences in your user account.

Time Position Orientation Groundspeed Altitude Reporting Facility
EDT Latitude Longitude Course Direction KTS MPH feet Rate Location/Type
01:34PM 21.3167 -157.9000 102° East 170 196 1,100  Level Honolulu Center
01:35PM 21.2667 -157.8667 148° Southeast 230 265 2,600 1,740 Climbing Honolulu Center
01:36PM 21.2561 -157.6638 102° East  Level FlightAware Approximate
01:36PM 21.2167 -157.8167 137° Southeast 260 299 4,700  Level Honolulu Center
01:37PM 21.2325 -157.5807 110° East  Level FlightAware Approximate
01:37PM 21.2167 -157.7333 90° East 290 334 6,600  Level Honolulu Center
01:38PM 21.2052 -157.4988 110° East  Level FlightAware Approximate
01:38PM 21.2000 -157.6500 102° East 290 334 9,100  Level Honolulu Center
01:39PM 21.1862 -157.4144 102° East  Level FlightAware Approximate
01:39PM 21.1833 -157.5500 100° East 300 345 10,700  Level Honolulu Center
01:40PM 21.1667 -157.4500 100° East 350 403 11,600 960 Climbing Honolulu Center
01:41PM 21.1333 -157.3500 110° East 380 437 12,700 1,320 Climbing Honolulu Center
01:42PM 21.1000 -157.2500 110° East 390 449 14,300 1,440 Climbing Honolulu Center
01:43PM 21.0500 -157.1500 118° Southeast 410 472 15,600 1,500 Climbing Honolulu Center
01:44PM 21.0000 -157.0333 115° Southeast 410 472 17,300 1,500 Climbing Honolulu Center
01:45PM 20.9500 -156.9167 115° Southeast 420 483 18,700 1,380 Climbing Honolulu Center
01:46PM 20.8833 -156.8000 121° Southeast 430 495 20,100 1,140 Climbing Honolulu Center
01:47PM 20.8333 -156.6833 115° Southeast 440 506 21,100 1,020 Climbing Honolulu Center
01:48PM 20.7833 -156.5500 112° Southeast 460 529 22,200 1,200 Climbing Honolulu Center
01:49PM 20.7167 -156.4333 121° Southeast 470 541 23,500 1,380 Climbing Honolulu Center
01:50PM 20.6667 -156.3000 112° Southeast 470 541 25,000 420 Climbing Honolulu Center
01:52PM 20.5500 -156.0500 116° Southeast 470 541 24,900 -60 Descending Honolulu Center
01:53PM 20.5000 -155.9333 115° Southeast 470 541 24,900 -960 Level Honolulu Center
01:54PM 20.4500 -155.8167 115° Southeast 460 529 23,000 -2,460 Descending Honolulu Center
01:55PM 20.4000 -155.7000 115° Southeast 430 495 20,000 -2,820 Descending Honolulu Center
01:56PM 20.3333 -155.6000 125° Southeast 400 460 17,400 -2,400 Descending Honolulu Center
01:57PM 20.3000 -155.5000 110° East 380 437 15,200 -2,100 Descending Honolulu Center
01:58PM 20.2500 -155.4000 118° Southeast 340 391 13,200 -1,920 Descending Honolulu Center
01:59PM 20.2000 -155.3167 123° Southeast 330 380 11,400 -1,800 Descending Honolulu Center
02:00PM 20.1333 -155.2500 137° Southeast 300 345 9,700 -1,860 Descending Honolulu Center
02:01PM 20.0833 -155.1667 123° Southeast 290 334 7,700 -1,860 Descending Honolulu Center
02:02PM 20.0333 -155.1167 137° Southeast 280 322 6,000 -1,800 Descending Honolulu Center
02:03PM 19.9667 -155.0833 155° Southeast 270 311 4,100 -1,860 Descending Honolulu Center
02:04PM 19.9000 -155.0667 167° South 260 299 2,300 -1,800 Descending Honolulu Center